Time;durP1;ratioP1;P1;durP2;ratioP2;P2;SDS_P1;SDS_P2;PMS_P1;PMS_P2;Temp;Humidity;BMP_temperature;BMP_pressure;BME280_temperature;BME280_humidity;BME280_pressure;Samples;Min_cycle;Max_cycle;Signal;HPM_P1;HPM_P2
2023/12/10 00:01:08;;;;;;;28.35;5.18;;;8.50;99.90;;;;;;7363625;19;20014;-58
2023/12/10 00:03:39;;;;;;;23.20;5.18;;;8.60;99.90;;;;;;7369701;19;20890;-58
2023/12/10 00:06:06;;;;;;;26.75;5.72;;;8.60;99.90;;;;;;7370735;19;20359;-58
2023/12/10 00:08:32;;;;;;;35.05;6.15;;;8.70;99.90;;;;;;7366567;19;21492;-58
2023/12/10 00:10:59;;;;;;;31.95;6.47;;;8.60;99.90;;;;;;7373689;19;20507;-58
2023/12/10 00:13:25;;;;;;;29.63;6.30;;;8.70;99.90;;;;;;7365990;19;20029;-58
2023/12/10 00:15:52;;;;;;;29.35;6.25;;;8.70;99.90;;;;;;7372544;19;20614;-58
2023/12/10 00:18:18;;;;;;;25.58;4.85;;;8.80;99.90;;;;;;7365657;19;20018;-58
2023/12/10 00:20:44;;;;;;;35.25;5.80;;;8.70;99.90;;;;;;7371611;19;20023;-58
2023/12/10 00:23:32;;;;;;;31.58;5.95;;;8.70;99.90;;;;;;7366546;19;20014;-58
2023/12/10 00:25:58;;;;;;;25.40;5.75;;;8.70;99.90;;;;;;7370888;19;20122;-57
2023/12/10 00:28:25;;;;;;;28.23;5.35;;;8.80;99.90;;;;;;7366371;19;20011;-59
2023/12/10 00:30:51;;;;;;;29.95;6.03;;;8.80;99.90;;;;;;7371971;19;20022;-63
2023/12/10 00:33:17;;;;;;;25.48;5.45;;;8.80;99.90;;;;;;7368095;19;20754;-63
2023/12/10 00:35:44;;;;;;;28.17;5.72;;;8.80;99.90;;;;;;7367145;19;20019;-63
2023/12/10 00:38:13;;;;;;;30.08;5.05;;;8.90;99.90;;;;;;7369492;19;20015;-63
2023/12/10 00:40:39;;;;;;;31.88;6.53;;;8.90;99.90;;;;;;7367161;19;20622;-63
2023/12/10 00:43:06;;;;;;;32.03;6.07;;;8.90;99.90;;;;;;7368647;19;20049;-63
2023/12/10 00:45:32;;;;;;;20.40;5.28;;;8.90;99.90;;;;;;7362602;19;20544;-63
2023/12/10 00:47:59;;;;;;;29.23;5.85;;;8.90;99.90;;;;;;7361865;19;20712;-63
2023/12/10 00:50:25;;;;;;;22.88;5.70;;;8.90;99.90;;;;;;7364879;19;20655;-58
2023/12/10 00:52:52;;;;;;;21.20;4.93;;;9.00;99.90;;;;;;7369158;19;20026;-58
2023/12/10 00:55:38;;;;;;;33.65;7.65;;;9.00;99.90;;;;;;7369220;19;20022;-58
2023/12/10 00:58:04;;;;;;;25.45;5.75;;;9.00;99.90;;;;;;7369469;19;20516;-58
2023/12/10 01:00:32;;;;;;;34.05;5.30;;;8.90;99.90;;;;;;7372199;19;20094;-58
2023/12/10 01:02:58;;;;;;;24.75;4.75;;;8.80;99.90;;;;;;7373578;19;20015;-63
2023/12/10 01:05:28;;;;;;;28.02;5.60;;;8.70;99.90;;;;;;7372857;19;20047;-58
2023/12/10 01:07:54;;;;;;;22.17;4.80;;;8.50;99.90;;;;;;7373339;19;20476;-63
2023/12/10 01:10:21;;;;;;;26.08;5.18;;;8.40;99.90;;;;;;7373297;19;20145;-63
2023/12/10 01:12:47;;;;;;;24.30;4.78;;;8.40;99.90;;;;;;7371028;19;20039;-63
2023/12/10 01:15:13;;;;;;;22.15;4.07;;;8.30;99.90;;;;;;7372350;19;20014;-63
2023/12/10 01:17:42;;;;;;;20.55;4.43;;;8.30;99.90;;;;;;7368570;19;20933;-62
2023/12/10 01:20:09;;;;;;;22.20;4.60;;;8.20;99.90;;;;;;7374150;19;20080;-58
2023/12/10 01:22:35;;;;;;;25.83;4.80;;;8.20;99.90;;;;;;7364881;19;20074;-58
2023/12/10 01:25:04;;;;;;;23.75;4.32;;;8.20;99.90;;;;;;7371901;19;20006;-58
2023/12/10 01:27:30;;;;;;;27.92;5.93;;;8.20;99.90;;;;;;7371349;19;20018;-63
2023/12/10 01:29:57;;;;;;;23.13;4.18;;;8.10;99.90;;;;;;7370792;19;20025;-58
2023/12/10 01:32:23;;;;;;;24.23;5.60;;;8.00;99.90;;;;;;7372736;19;20029;-58
2023/12/10 01:34:50;;;;;;;23.95;4.80;;;8.00;99.90;;;;;;7372933;19;20043;-58
2023/12/10 01:37:16;;;;;;;24.98;4.72;;;8.00;99.90;;;;;;7372470;19;20018;-63
2023/12/10 01:39:48;;;;;;;23.02;4.95;;;7.90;99.90;;;;;;7372204;19;20018;-58
2023/12/10 01:42:15;;;;;;;27.50;4.97;;;8.00;99.90;;;;;;7361137;19;20014;-58
2023/12/10 01:44:42;;;;;;;26.38;5.45;;;8.00;99.90;;;;;;7370933;19;20760;-58
2023/12/10 01:47:10;;;;;;;31.40;6.22;;;8.00;99.90;;;;;;7369533;19;20019;-58
2023/12/10 01:49:38;;;;;;;29.60;5.80;;;8.00;99.90;;;;;;7371082;19;20014;-58
2023/12/10 01:52:24;;;;;;;24.90;5.72;;;8.00;99.90;;;;;;7369474;19;20019;-58
2023/12/10 01:55:12;;;;;;;27.30;5.93;;;8.00;99.90;;;;;;7371661;19;20542;-58
2023/12/10 01:57:58;;;;;;;33.53;5.28;;;8.00;99.90;;;;;;7371064;19;20509;-64
2023/12/10 02:00:44;;;;;;;27.25;4.38;;;8.00;99.90;;;;;;7374073;19;20970;-58
2023/12/10 02:03:14;;;;;;;26.92;5.97;;;8.00;99.90;;;;;;7370474;19;20483;-58
2023/12/10 02:06:02;;;;;;;28.02;5.70;;;8.00;99.90;;;;;;7373452;19;20018;-58
2023/12/10 02:08:48;;;;;;;27.05;4.78;;;7.90;99.90;;;;;;7369517;19;20031;-58
2023/12/10 02:11:15;;;;;;;26.15;5.57;;;8.00;99.90;;;;;;7372051;19;20017;-57
2023/12/10 02:13:53;;;;;;;23.48;5.28;;;7.90;99.90;;;;;;7374454;19;20022;-58
2023/12/10 02:16:19;;;;;;;35.70;6.25;;;7.90;99.90;;;;;;7368919;19;20039;-58
2023/12/10 02:18:46;;;;;;;33.28;5.72;;;7.90;99.90;;;;;;7372681;19;20042;-57
2023/12/10 02:21:12;;;;;;;32.85;6.13;;;7.90;99.90;;;;;;7369484;19;20052;-58
2023/12/10 02:23:51;;;;;;;30.05;6.15;;;7.90;99.90;;;;;;7370379;19;20042;-58
2023/12/10 02:26:18;;;;;;;33.33;7.68;;;7.90;99.90;;;;;;7368461;19;20089;-59
2023/12/10 02:28:44;;;;;;;31.08;6.82;;;7.90;99.90;;;;;;7370138;19;20020;-64
2023/12/10 02:31:14;;;;;;;31.27;5.75;;;7.90;99.90;;;;;;7367153;19;20032;-58
2023/12/10 02:33:40;;;;;;;30.92;5.32;;;7.90;99.90;;;;;;7369667;19;20018;-58
2023/12/10 02:36:27;;;;;;;34.10;5.47;;;7.90;99.90;;;;;;7367828;19;20021;-58
2023/12/10 02:38:54;;;;;;;28.80;6.15;;;7.90;99.90;;;;;;7369400;19;20115;-57
2023/12/10 02:41:20;;;;;;;26.75;5.80;;;7.90;99.90;;;;;;7363856;19;20403;-58
2023/12/10 02:43:46;;;;;;;28.88;6.97;;;8.00;99.90;;;;;;7371531;19;20956;-65
2023/12/10 02:46:13;;;;;;;31.25;5.97;;;8.00;99.90;;;;;;7368200;19;20631;-65
2023/12/10 02:48:39;;;;;;;33.13;6.35;;;8.00;99.90;;;;;;7366091;19;20011;-65
2023/12/10 02:51:07;;;;;;;33.33;6.45;;;8.00;99.90;;;;;;7369220;19;20023;-58
2023/12/10 02:53:33;;;;;;;32.85;5.93;;;8.00;99.90;;;;;;7365591;19;20502;-58
2023/12/10 02:56:00;;;;;;;31.10;5.88;;;7.90;99.90;;;;;;7369192;19;20018;-59
2023/12/10 02:58:26;;;;;;;27.50;6.93;;;8.00;99.90;;;;;;7367144;19;20086;-65
2023/12/10 03:00:54;;;;;;;30.90;5.80;;;7.90;99.90;;;;;;7370463;19;20023;-64
2023/12/10 03:03:20;;;;;;;33.05;6.03;;;7.90;99.90;;;;;;7369610;19;20041;-64
2023/12/10 03:05:46;;;;;;;29.08;6.07;;;7.90;99.90;;;;;;7367033;19;20055;-58
2023/12/10 03:08:13;;;;;;;29.35;5.93;;;8.00;99.90;;;;;;7368472;19;20521;-58
2023/12/10 03:10:39;;;;;;;26.02;5.25;;;7.90;99.90;;;;;;7369369;19;20499;-59
2023/12/10 03:13:05;;;;;;;37.47;7.18;;;8.00;99.90;;;;;;7356813;19;20022;-65
2023/12/10 03:15:31;;;;;;;26.95;5.63;;;7.90;99.90;;;;;;7364722;19;20018;-65
2023/12/10 03:17:58;;;;;;;30.42;5.50;;;7.90;99.90;;;;;;7367413;19;20022;-66
2023/12/10 03:20:24;;;;;;;32.10;6.22;;;7.80;99.90;;;;;;7365344;19;20837;-58
2023/12/10 03:22:50;;;;;;;28.30;4.75;;;7.80;99.90;;;;;;7365066;19;20081;-58
2023/12/10 03:25:17;;;;;;;30.65;6.38;;;7.80;99.90;;;;;;7365460;19;20736;-58
2023/12/10 03:28:04;;;;;;;26.88;5.53;;;7.80;99.90;;;;;;7366693;19;20025;-64
2023/12/10 03:30:30;;;;;;;33.80;6.25;;;7.80;99.90;;;;;;7364257;19;21228;-64
2023/12/10 03:32:56;;;;;;;20.67;4.93;;;7.80;99.90;;;;;;7366614;19;21233;-64
2023/12/10 03:35:22;;;;;;;34.63;6.45;;;7.70;99.90;;;;;;7363505;19;20798;-64
2023/12/10 03:37:49;;;;;;;26.35;6.05;;;7.70;99.90;;;;;;7372148;19;20031;-64
2023/12/10 03:40:15;;;;;;;24.73;5.65;;;7.80;99.90;;;;;;7365510;19;20049;-64
2023/12/10 03:42:42;;;;;;;26.85;5.15;;;7.80;99.90;;;;;;7368901;19;20055;-64
2023/12/10 03:45:09;;;;;;;24.25;6.00;;;7.80;99.90;;;;;;7368842;19;20022;-65
2023/12/10 03:47:35;;;;;;;30.58;5.45;;;7.80;99.90;;;;;;7365464;19;20022;-64
2023/12/10 03:50:03;;;;;;;31.20;4.60;;;7.80;99.90;;;;;;7366592;19;20136;-65
2023/12/10 03:52:29;;;;;;;24.40;5.35;;;7.80;99.90;;;;;;7369027;19;20014;-58
2023/12/10 03:54:56;;;;;;;22.23;4.53;;;7.70;99.90;;;;;;7365809;19;20106;-65
2023/12/10 03:57:22;;;;;;;19.52;4.22;;;7.80;99.90;;;;;;7364612;19;20015;-64
2023/12/10 03:59:48;;;;;;;28.60;5.75;;;7.80;99.90;;;;;;7362784;19;20864;-65
2023/12/10 04:02:14;;;;;;;19.73;4.25;;;7.90;99.90;;;;;;7366931;19;20074;-58
2023/12/10 04:04:41;;;;;;;23.25;5.03;;;7.80;99.90;;;;;;7366829;19;20042;-58
2023/12/10 04:07:08;;;;;;;18.02;4.35;;;7.80;99.90;;;;;;7370469;19;20554;-65
2023/12/10 04:09:34;;;;;;;22.20;4.68;;;7.80;99.90;;;;;;7368513;19;20089;-64
2023/12/10 04:12:00;;;;;;;29.60;4.50;;;7.80;99.90;;;;;;7366297;19;20043;-65
2023/12/10 04:14:27;;;;;;;22.77;4.20;;;7.90;99.90;;;;;;7367060;19;20018;-65
2023/12/10 04:16:54;;;;;;;15.35;3.67;;;7.90;99.90;;;;;;7367491;19;20070;-64
2023/12/10 04:19:42;;;;;;;20.85;4.13;;;7.80;99.90;;;;;;7362657;19;20023;-65
2023/12/10 04:22:08;;;;;;;20.55;4.65;;;7.80;99.90;;;;;;7360444;19;20027;-65
2023/12/10 04:24:34;;;;;;;15.13;4.10;;;7.90;99.90;;;;;;7366907;19;20451;-65
2023/12/10 04:27:00;;;;;;;19.50;4.20;;;7.80;99.90;;;;;;7362151;19;20019;-65
2023/12/10 04:29:28;;;;;;;16.13;3.50;;;7.90;99.90;;;;;;7363514;19;20078;-64
2023/12/10 04:31:54;;;;;;;18.83;3.45;;;7.90;99.90;;;;;;7373952;19;20527;-65
2023/12/10 04:34:21;;;;;;;16.75;3.85;;;7.90;99.90;;;;;;7371409;19;20030;-65
2023/12/10 04:36:47;;;;;;;17.90;3.65;;;8.00;99.90;;;;;;7374986;19;20022;-65
2023/12/10 04:39:15;;;;;;;20.17;4.75;;;7.90;99.90;;;;;;7371989;19;20014;-64
2023/12/10 04:41:42;;;;;;;21.02;3.97;;;8.00;99.90;;;;;;7371816;19;20502;-66
2023/12/10 04:44:08;;;;;;;22.20;4.15;;;7.90;99.90;;;;;;7373466;19;20022;-65
2023/12/10 04:46:34;;;;;;;18.88;4.75;;;8.00;99.90;;;;;;7372692;19;20014;-65
2023/12/10 04:49:01;;;;;;;22.65;4.88;;;8.00;99.90;;;;;;7372069;19;20035;-65
2023/12/10 04:51:31;;;;;;;22.58;5.80;;;8.10;99.90;;;;;;7371334;19;20023;-58
2023/12/10 04:53:57;;;;;;;29.17;6.15;;;8.00;99.90;;;;;;7372613;19;20492;-58
2023/12/10 04:56:24;;;;;;;29.38;5.63;;;8.00;99.90;;;;;;7368695;19;20078;-59
2023/12/10 04:58:50;;;;;;;24.58;4.70;;;8.20;99.90;;;;;;7373649;19;20379;-58
2023/12/10 05:01:17;;;;;;;24.10;5.70;;;8.10;99.90;;;;;;7372711;19;20022;-58
2023/12/10 05:03:43;;;;;;;29.90;5.30;;;8.20;99.90;;;;;;7373607;19;20035;-59
2023/12/10 05:06:09;;;;;;;22.73;5.57;;;8.20;99.90;;;;;;7371668;19;20019;-66
2023/12/10 05:08:35;;;;;;;26.85;4.57;;;8.20;99.90;;;;;;7367329;19;20764;-65
2023/12/10 05:11:03;;;;;;;27.88;5.13;;;8.20;99.90;;;;;;7370701;19;20623;-65
2023/12/10 05:13:30;;;;;;;21.60;5.82;;;8.20;99.90;;;;;;7372545;19;20010;-59
2023/12/10 05:16:00;;;;;;;19.63;5.10;;;8.20;99.90;;;;;;7370725;19;20014;-58
2023/12/10 05:18:26;;;;;;;21.25;6.22;;;8.30;99.90;;;;;;7372069;19;20677;-58
2023/12/10 05:20:53;;;;;;;21.30;4.90;;;8.30;99.90;;;;;;7369483;19;20026;-65
2023/12/10 05:23:20;;;;;;;22.38;4.43;;;8.30;99.90;;;;;;7373006;19;20015;-59
2023/12/10 05:25:46;;;;;;;23.83;4.85;;;8.40;99.90;;;;;;7372919;19;20023;-65
2023/12/10 05:28:12;;;;;;;24.10;5.28;;;8.30;99.90;;;;;;7375539;19;20025;-58
2023/12/10 05:30:40;;;;;;;19.67;5.13;;;8.30;99.90;;;;;;7365359;19;20111;-59
2023/12/10 05:33:06;;;;;;;18.65;4.25;;;8.30;99.90;;;;;;7373306;19;20441;-65
2023/12/10 05:35:34;;;;;;;18.30;4.15;;;8.30;99.90;;;;;;7365620;19;21395;-66
2023/12/10 05:38:00;;;;;;;19.88;4.22;;;8.30;99.90;;;;;;7374183;19;20035;-58
2023/12/10 05:40:27;;;;;;;22.02;5.10;;;8.30;99.90;;;;;;7367182;19;20019;-59
2023/12/10 05:42:54;;;;;;;22.63;4.57;;;8.20;99.90;;;;;;7372012;19;20032;-59
2023/12/10 05:45:20;;;;;;;17.13;4.20;;;8.30;99.90;;;;;;7370104;19;20116;-58
2023/12/10 05:47:47;;;;;;;22.92;5.15;;;8.30;99.90;;;;;;7368494;19;20015;-59
2023/12/10 05:50:13;;;;;;;20.55;4.28;;;8.30;99.90;;;;;;7368932;19;20022;-59
2023/12/10 05:52:40;;;;;;;20.27;4.93;;;8.30;99.90;;;;;;7368598;19;20031;-59
2023/12/10 05:55:06;;;;;;;27.45;5.13;;;8.30;99.90;;;;;;7373015;19;20765;-58
2023/12/10 05:57:33;;;;;;;18.40;3.97;;;8.30;99.90;;;;;;7366959;19;20022;-58
2023/12/10 05:59:59;;;;;;;21.92;4.75;;;8.30;99.90;;;;;;7367863;19;20018;-65
2023/12/10 06:02:25;;;;;;;19.60;4.82;;;8.40;99.90;;;;;;7367988;19;20023;-65
2023/12/10 06:04:52;;;;;;;19.58;5.05;;;8.30;99.90;;;;;;7371362;19;20022;-66
2023/12/10 06:07:18;;;;;;;17.45;3.67;;;8.30;99.90;;;;;;7370900;19;20615;-65
2023/12/10 06:09:45;;;;;;;19.90;4.63;;;8.30;99.90;;;;;;7367016;19;21034;-66
2023/12/10 06:12:13;;;;;;;18.05;3.72;;;8.30;99.90;;;;;;7372200;19;20026;-66
2023/12/10 06:14:40;;;;;;;20.65;3.90;;;8.30;99.90;;;;;;7369833;19;20022;-66
2023/12/10 06:17:06;;;;;;;19.77;4.60;;;8.50;99.90;;;;;;7370785;19;20036;-65
2023/12/10 06:19:32;;;;;;;17.80;3.80;;;8.40;99.90;;;;;;7371597;19;20018;-66
2023/12/10 06:21:58;;;;;;;23.65;5.25;;;8.40;99.90;;;;;;7363628;19;20022;-65
2023/12/10 06:24:26;;;;;;;23.80;5.20;;;8.50;99.90;;;;;;7372533;19;20514;-65
2023/12/10 06:26:52;;;;;;;30.30;5.40;;;8.50;99.90;;;;;;7366744;19;20015;-65
2023/12/10 06:29:19;;;;;;;32.15;5.70;;;8.60;99.90;;;;;;7370722;19;20806;-66
2023/12/10 06:31:46;;;;;;;29.55;5.30;;;8.50;99.90;;;;;;7368066;19;20078;-65
2023/12/10 06:34:12;;;;;;;19.50;4.32;;;8.60;99.90;;;;;;7368580;19;20023;-68
2023/12/10 06:36:38;;;;;;;24.60;5.78;;;8.60;99.90;;;;;;7369257;19;20022;-65
2023/12/10 06:39:05;;;;;;;31.83;6.15;;;8.70;99.90;;;;;;7370323;19;20085;-69
2023/12/10 06:41:31;;;;;;;30.42;5.47;;;8.50;99.90;;;;;;7367806;19;20490;-64
2023/12/10 06:43:57;;;;;;;28.23;5.15;;;8.70;99.90;;;;;;7372800;19;20096;-66
2023/12/10 06:46:23;;;;;;;27.38;5.78;;;8.50;99.90;;;;;;7367481;19;20379;-66
2023/12/10 06:48:50;;;;;;;27.92;5.13;;;8.50;99.90;;;;;;7372723;19;20022;-66
2023/12/10 06:51:16;;;;;;;28.42;5.10;;;8.70;99.90;;;;;;7374563;19;20097;-66
2023/12/10 06:53:42;;;;;;;34.63;6.80;;;8.50;99.90;;;;;;7368536;19;20060;-66
2023/12/10 06:56:09;;;;;;;32.78;7.45;;;8.50;99.90;;;;;;7367614;19;20018;-65
2023/12/10 06:58:35;;;;;;;22.55;5.80;;;8.70;99.90;;;;;;7369161;19;20085;-65
2023/12/10 07:01:03;;;;;;;25.50;4.65;;;8.40;99.90;;;;;;7371083;19;20029;-66
2023/12/10 07:03:29;;;;;;;27.48;5.43;;;8.60;99.90;;;;;;7370569;19;20023;-66
2023/12/10 07:05:55;;;;;;;29.40;5.78;;;8.50;99.90;;;;;;7370794;19;20048;-66
2023/12/10 07:08:21;;;;;;;28.70;5.30;;;8.50;99.90;;;;;;7369751;19;20082;-66
2023/12/10 07:10:50;;;;;;;27.55;5.70;;;8.40;99.90;;;;;;7367274;19;20036;-65
2023/12/10 07:13:19;;;;;;;25.23;5.57;;;8.60;99.90;;;;;;7366115;19;20022;-66
2023/12/10 07:15:45;;;;;;;18.70;4.43;;;8.40;99.90;;;;;;7368890;19;20031;-65
2023/12/10 07:18:12;;;;;;;25.70;4.28;;;8.60;99.90;;;;;;7367969;19;20014;-66
2023/12/10 07:20:38;;;;;;;18.25;4.22;;;8.60;99.90;;;;;;7365847;19;20050;-65
2023/12/10 07:23:04;;;;;;;19.85;5.90;;;8.40;99.90;;;;;;7370935;19;20521;-66
2023/12/10 07:25:31;;;;;;;17.58;3.28;;;8.30;99.90;;;;;;7369802;19;20410;-66
2023/12/10 07:27:57;;;;;;;23.92;4.13;;;8.50;99.90;;;;;;7370331;19;20043;-66
2023/12/10 07:30:24;;;;;;;16.85;3.92;;;8.50;99.90;;;;;;7370345;19;20023;-65
2023/12/10 07:32:51;;;;;;;15.15;3.42;;;8.30;99.90;;;;;;7369897;19;20089;-66
2023/12/10 07:35:17;;;;;;;20.00;4.28;;;8.30;99.90;;;;;;7367819;19;20014;-66
2023/12/10 07:37:44;;;;;;;26.85;4.03;;;8.30;99.90;;;;;;7366918;19;20022;-65
2023/12/10 07:40:11;;;;;;;18.73;3.83;;;8.40;99.90;;;;;;7367427;19;20026;-65
2023/12/10 07:42:37;;;;;;;22.85;4.20;;;8.40;99.90;;;;;;7361120;19;20018;-59
2023/12/10 07:45:04;;;;;;;21.77;4.00;;;8.40;99.90;;;;;;7364433;19;20845;-58
2023/12/10 07:47:30;;;;;;;21.65;4.57;;;8.30;99.90;;;;;;7367189;19;20022;-58
2023/12/10 07:49:56;;;;;;;19.50;3.75;;;8.40;99.90;;;;;;7365688;19;20025;-59
2023/12/10 07:52:23;;;;;;;18.92;4.25;;;8.40;99.90;;;;;;7363684;19;20039;-59
2023/12/10 07:54:49;;;;;;;23.15;4.80;;;8.30;99.90;;;;;;7366011;19;20038;-59
2023/12/10 07:57:16;;;;;;;18.55;4.43;;;8.40;99.90;;;;;;7367559;19;20115;-58
2023/12/10 07:59:44;;;;;;;21.80;4.45;;;8.40;99.90;;;;;;7365628;19;20339;-58
2023/12/10 08:02:14;;;;;;;26.25;4.10;;;8.40;99.90;;;;;;7360868;19;20018;-58
2023/12/10 08:04:40;;;;;;;25.17;4.93;;;8.50;99.90;;;;;;7361935;19;20014;-58
2023/12/10 08:07:07;;;;;;;27.52;5.88;;;8.30;99.90;;;;;;7363813;19;20027;-59
2023/12/10 08:09:34;;;;;;;21.30;4.65;;;8.30;99.90;;;;;;7364020;19;20029;-59
2023/12/10 08:12:00;;;;;;;25.95;5.30;;;8.30;99.90;;;;;;7365025;19;20019;-58
2023/12/10 08:14:46;;;;;;;33.38;5.18;;;8.40;99.90;;;;;;7363049;19;20043;-58
2023/12/10 08:17:13;;;;;;;24.80;5.50;;;8.30;99.90;;;;;;7367529;19;20091;-64
2023/12/10 08:19:39;;;;;;;15.85;4.15;;;8.30;99.90;;;;;;7365276;19;20018;-65
2023/12/10 08:22:06;;;;;;;21.25;4.13;;;8.40;99.90;;;;;;7365229;19;20809;-60
2023/12/10 08:24:33;;;;;;;17.55;3.53;;;8.20;99.90;;;;;;7366063;19;20022;-64
2023/12/10 08:26:59;;;;;;;19.63;5.30;;;8.30;99.90;;;;;;7369437;19;20033;-64
2023/12/10 08:29:26;;;;;;;19.42;4.05;;;8.30;99.90;;;;;;7360855;19;20030;-65
2023/12/10 08:31:52;;;;;;;22.58;4.97;;;8.40;99.90;;;;;;7366666;19;20022;-65
2023/12/10 08:34:21;;;;;;;31.60;5.45;;;8.30;99.90;;;;;;7212988;19;2864732;-66
2023/12/10 08:36:48;;;;;;;25.13;4.30;;;8.20;99.90;;;;;;7363570;19;20585;-65
2023/12/10 08:39:14;;;;;;;24.55;4.68;;;8.20;99.90;;;;;;7364182;19;20047;-66
2023/12/10 08:41:44;;;;;;;18.40;5.07;;;8.40;99.90;;;;;;7362896;19;20018;-66
2023/12/10 08:44:10;;;;;;;21.10;4.18;;;8.40;99.90;;;;;;7362581;19;20386;-65
2023/12/10 08:46:38;;;;;;;28.10;5.57;;;8.20;99.90;;;;;;7364291;19;20043;-65
2023/12/10 08:49:04;;;;;;;24.23;5.60;;;8.40;99.90;;;;;;7366977;19;20025;-65
2023/12/10 08:51:33;;;;;;;23.95;4.72;;;8.20;99.90;;;;;;7369832;19;20034;-65
2023/12/10 08:53:59;;;;;;;23.65;4.47;;;8.30;99.90;;;;;;7368293;19;20035;-65
2023/12/10 08:56:26;;;;;;;25.52;4.38;;;8.50;99.90;;;;;;7367532;19;20025;-65
2023/12/10 08:58:53;;;;;;;23.95;6.10;;;8.20;99.90;;;;;;7370428;19;20103;-65
2023/12/10 09:01:19;;;;;;;24.40;3.83;;;8.30;99.90;;;;;;7367081;19;20044;-65
2023/12/10 09:03:45;;;;;;;23.77;4.75;;;8.30;99.90;;;;;;7369875;19;20022;-64
2023/12/10 09:06:12;;;;;;;27.40;5.90;;;8.40;99.90;;;;;;7365918;19;20022;-66
2023/12/10 09:08:39;;;;;;;34.05;5.38;;;8.20;99.90;;;;;;7368447;19;20053;-65
2023/12/10 09:11:05;;;;;;;27.05;5.55;;;8.30;99.90;;;;;;7366402;19;20015;-63
2023/12/10 09:13:32;;;;;;;28.20;6.10;;;8.20;99.90;;;;;;7368629;19;20757;-67
2023/12/10 09:15:59;;;;;;;24.63;6.15;;;8.40;99.90;;;;;;7370927;19;20773;-62
2023/12/10 09:18:26;;;;;;;31.02;5.72;;;8.30;99.90;;;;;;7375910;19;20745;-64
2023/12/10 09:20:53;;;;;;;36.10;5.97;;;8.10;99.90;;;;;;7374778;19;20010;-59
2023/12/10 09:23:21;;;;;;;25.58;5.90;;;8.20;99.90;;;;;;7378702;19;20034;-58
2023/12/10 09:25:48;;;;;;;40.40;7.68;;;8.20;99.90;;;;;;7373523;19;20506;-65
2023/12/10 09:28:14;;;;;;;39.97;6.88;;;8.20;99.90;;;;;;7372474;19;20462;-58
2023/12/10 09:30:45;;;;;;;39.15;7.18;;;8.20;99.90;;;;;;7373610;19;20018;-58
2023/12/10 09:33:11;;;;;;;39.28;7.10;;;8.40;99.90;;;;;;7376311;19;20018;-58
2023/12/10 09:35:39;;;;;;;43.42;7.88;;;8.40;99.90;;;;;;7374038;19;20026;-59
2023/12/10 09:38:05;;;;;;;32.95;7.80;;;8.40;99.90;;;;;;7376068;19;20482;-58
2023/12/10 09:40:34;;;;;;;38.90;6.28;;;8.30;99.90;;;;;;7373854;19;20014;-58
2023/12/10 09:43:03;;;;;;;38.08;6.50;;;8.40;99.90;;;;;;7369846;19;20086;-58
2023/12/10 09:45:29;;;;;;;38.58;6.88;;;8.50;99.90;;;;;;7374888;19;20023;-58
2023/12/10 09:47:56;;;;;;;37.58;7.65;;;8.50;99.90;;;;;;7375806;19;20015;-65
2023/12/10 09:50:23;;;;;;;35.90;7.05;;;8.50;99.90;;;;;;7373325;19;20041;-65
2023/12/10 09:52:49;;;;;;;40.30;8.00;;;8.50;99.90;;;;;;7372989;19;20793;-65
2023/12/10 09:55:19;;;;;;;28.83;7.28;;;8.40;99.90;;;;;;7375903;19;20014;-66
2023/12/10 09:57:46;;;;;;;35.60;6.90;;;8.40;99.90;;;;;;7374247;19;20014;-65
2023/12/10 10:00:12;;;;;;;34.78;7.32;;;8.40;99.90;;;;;;7369989;19;20765;-65
2023/12/10 10:02:39;;;;;;;36.70;7.10;;;8.50;99.90;;;;;;7370932;19;20019;-66
2023/12/10 10:05:09;;;;;;;37.92;7.45;;;8.50;99.90;;;;;;7374137;19;20025;-66
2023/12/10 10:07:36;;;;;;;49.03;7.78;;;8.30;99.90;;;;;;7373366;19;20089;-65
2023/12/10 10:10:05;;;;;;;40.33;7.03;;;8.30;99.90;;;;;;7372828;19;20097;-66
2023/12/10 10:12:33;;;;;;;39.97;7.70;;;8.40;99.90;;;;;;7374252;19;20026;-66
2023/12/10 10:15:00;;;;;;;40.90;8.25;;;8.30;99.90;;;;;;7374216;19;20018;-66
2023/12/10 10:17:36;;;;;;;37.25;7.45;;;8.40;99.90;;;;;;7374048;19;20021;-66
2023/12/10 10:20:06;;;;;;;34.90;6.18;;;8.40;99.90;;;;;;7375361;19;20025;-65
2023/12/10 10:22:32;;;;;;;31.40;7.28;;;8.30;99.90;;;;;;7367993;19;20694;-65
2023/12/10 10:24:59;;;;;;;29.30;7.43;;;8.30;99.90;;;;;;7375142;19;20731;-65
2023/12/10 10:27:26;;;;;;;37.92;9.38;;;8.30;99.90;;;;;;7367117;19;20019;-65
2023/12/10 10:29:53;;;;;;;33.60;7.00;;;8.40;99.90;;;;;;7377253;19;20035;-65
2023/12/10 10:32:20;;;;;;;31.58;5.97;;;8.40;99.90;;;;;;7375816;19;20039;-65
2023/12/10 10:35:08;;;;;;;33.20;6.88;;;8.40;99.90;;;;;;7374308;19;20014;-65
2023/12/10 10:37:35;;;;;;;36.33;6.88;;;8.40;99.90;;;;;;7375073;19;20090;-61
2023/12/10 10:40:03;;;;;;;32.78;6.30;;;8.40;99.90;;;;;;7375823;19;20018;-59
2023/12/10 10:42:29;;;;;;;34.35;7.47;;;8.40;99.90;;;;;;7370103;19;20134;-59
2023/12/10 10:44:56;;;;;;;28.02;5.53;;;8.40;99.90;;;;;;7373157;19;20018;-58
2023/12/10 10:47:23;;;;;;;38.00;6.90;;;8.40;99.90;;;;;;7374379;19;20018;-58
2023/12/10 10:49:55;;;;;;;33.03;6.70;;;8.40;99.90;;;;;;7373401;19;20014;-58
2023/12/10 10:52:27;;;;;;;35.17;6.63;;;8.40;99.90;;;;;;7372659;19;20021;-59
2023/12/10 10:54:55;;;;;;;33.17;6.88;;;8.40;99.90;;;;;;7373145;19;20086;-58
2023/12/10 10:57:36;;;;;;;33.08;6.07;;;8.40;99.90;;;;;;7375173;19;20025;-58
2023/12/10 11:00:18;;;;;;;29.08;5.72;;;8.40;99.90;;;;;;7375072;19;20054;-59
2023/12/10 11:02:49;;;;;;;30.75;6.72;;;8.50;99.90;;;;;;7373389;19;20097;-59
2023/12/10 11:05:32;;;;;;;31.65;5.53;;;8.40;99.90;;;;;;7372481;19;20588;-59
2023/12/10 11:07:59;;;;;;;30.27;6.05;;;8.40;99.90;;;;;;7372497;19;20244;-58
2023/12/10 11:10:26;;;;;;;34.30;6.55;;;8.50;99.90;;;;;;7371337;19;20841;-58
2023/12/10 11:13:13;;;;;;;32.50;5.68;;;8.50;99.90;;;;;;7370883;19;20018;-58
2023/12/10 11:15:40;;;;;;;32.47;6.80;;;8.50;99.90;;;;;;7370485;19;20018;-58
2023/12/10 11:18:06;;;;;;;32.38;6.72;;;8.50;99.90;;;;;;7372579;19;20782;-58
2023/12/10 11:20:43;;;;;;;31.95;5.63;;;8.50;99.90;;;;;;7365316;19;20415;-58
2023/12/10 11:23:12;;;;;;;29.75;7.18;;;8.50;99.90;;;;;;7369263;19;20893;-58
2023/12/10 11:25:40;;;;;;;26.38;5.80;;;8.50;99.90;;;;;;7365683;19;20022;-58
2023/12/10 11:28:18;;;;;;;24.73;5.97;;;8.40;99.90;;;;;;7373475;19;20331;-58
2023/12/10 11:30:45;;;;;;;29.70;6.40;;;8.50;99.90;;;;;;7370232;19;20039;-58
2023/12/10 11:33:14;;;;;;;34.05;6.70;;;8.60;99.90;;;;;;7369273;19;20669;-58
2023/12/10 11:35:42;;;;;;;27.75;6.72;;;8.60;99.90;;;;;;7369568;19;20042;-57
2023/12/10 11:38:09;;;;;;;28.88;5.18;;;8.60;99.90;;;;;;7368524;19;20056;-58
2023/12/10 11:40:38;;;;;;;28.38;5.40;;;8.60;99.90;;;;;;7367294;19;20019;-58
2023/12/10 11:43:05;;;;;;;31.85;5.88;;;8.60;99.90;;;;;;7370977;19;20028;-58
2023/12/10 11:45:33;;;;;;;41.83;7.15;;;8.70;99.90;;;;;;7371185;19;20022;-58
2023/12/10 11:48:01;;;;;;;35.08;6.00;;;8.70;99.90;;;;;;7369254;19;20034;-58
2023/12/10 11:50:28;;;;;;;35.30;6.57;;;8.60;99.90;;;;;;7368558;19;20026;-64
2023/12/10 11:52:55;;;;;;;25.65;5.78;;;8.60;99.90;;;;;;7370036;19;20042;-65
2023/12/10 11:55:21;;;;;;;32.75;5.50;;;8.60;99.90;;;;;;7368965;19;20862;-65
2023/12/10 11:57:50;;;;;;;30.60;5.05;;;8.50;99.90;;;;;;7367723;19;20054;-58
2023/12/10 12:00:17;;;;;;;31.83;6.38;;;8.60;99.90;;;;;;7367930;19;20018;-58
2023/12/10 12:02:45;;;;;;;33.85;6.35;;;8.50;99.90;;;;;;7367553;19;20462;-64
2023/12/10 12:05:15;;;;;;;28.65;6.32;;;8.50;99.90;;;;;;7365616;19;20053;-59
2023/12/10 12:07:43;;;;;;;34.53;6.20;;;8.50;99.90;;;;;;7369675;19;20022;-58
2023/12/10 12:10:12;;;;;;;28.80;6.53;;;8.50;99.90;;;;;;7367702;19;20010;-57
2023/12/10 12:12:42;;;;;;;28.27;5.75;;;8.40;99.90;;;;;;7365764;19;20014;-58
2023/12/10 12:15:13;;;;;;;34.35;5.72;;;8.50;99.90;;;;;;7363410;19;20023;-58
2023/12/10 12:17:43;;;;;;;27.63;5.63;;;8.50;99.90;;;;;;7366359;19;20022;-58
2023/12/10 12:20:22;;;;;;;32.40;6.32;;;8.50;99.90;;;;;;7368371;19;20379;-58
2023/12/10 12:22:49;;;;;;;29.80;6.95;;;8.50;99.90;;;;;;7366602;19;20019;-58
2023/12/10 12:25:16;;;;;;;27.00;6.10;;;8.50;99.90;;;;;;7366252;19;20014;-64
2023/12/10 12:27:43;;;;;;;29.75;5.03;;;8.60;99.90;;;;;;7365649;19;20023;-65
2023/12/10 12:30:17;;;;;;;32.28;5.97;;;8.50;99.90;;;;;;7363013;19;20025;-64
2023/12/10 12:33:04;;;;;;;26.17;4.28;;;8.60;99.90;;;;;;7364640;19;20022;-58
2023/12/10 12:35:30;;;;;;;29.10;5.55;;;8.60;99.90;;;;;;7364759;19;20111;-58
2023/12/10 12:37:57;;;;;;;25.63;6.07;;;8.60;99.90;;;;;;7363031;19;20491;-64
2023/12/10 12:40:27;;;;;;;24.27;4.78;;;8.60;99.90;;;;;;7364349;19;20019;-65
2023/12/10 12:42:54;;;;;;;28.33;5.55;;;8.70;99.90;;;;;;7359289;19;20647;-65
2023/12/10 12:45:20;;;;;;;21.73;4.95;;;8.70;99.90;;;;;;7364285;19;20014;-64
2023/12/10 12:47:51;;;;;;;16.58;4.28;;;8.60;99.90;;;;;;7369096;19;20050;-58
2023/12/10 12:50:27;;;;;;;25.15;5.07;;;8.60;99.90;;;;;;7366900;19;20026;-58
2023/12/10 12:52:53;;;;;;;21.65;5.32;;;8.60;99.90;;;;;;7378730;19;20022;-58